sensor_id;sensor_type;location;lat;lon;timestamp;pressure;altitude;pressure_sealevel;temperature;humidity
84316;BME280;74496;52.236;5.164;2023-12-20T00:01:29;101516.47;;;8.60;77.28
84316;BME280;74496;52.236;5.164;2023-12-20T00:03:54;101514.78;;;8.59;76.81
84316;BME280;74496;52.236;5.164;2023-12-20T00:06:21;101507.00;;;8.57;77.51
84316;BME280;74496;52.236;5.164;2023-12-20T00:08:48;101515.00;;;8.56;77.27
84316;BME280;74496;52.236;5.164;2023-12-20T00:11:14;101510.03;;;8.51;77.32
84316;BME280;74496;52.236;5.164;2023-12-20T00:13:41;101499.34;;;8.41;77.83
84316;BME280;74496;52.236;5.164;2023-12-20T00:16:09;101496.91;;;8.38;77.56
84316;BME280;74496;52.236;5.164;2023-12-20T00:18:36;101500.69;;;8.34;78.04
84316;BME280;74496;52.236;5.164;2023-12-20T00:21:03;101492.28;;;8.29;77.35
84316;BME280;74496;52.236;5.164;2023-12-20T00:23:31;101496.47;;;8.32;77.84
84316;BME280;74496;52.236;5.164;2023-12-20T00:25:57;101500.91;;;8.31;77.91
84316;BME280;74496;52.236;5.164;2023-12-20T00:28:24;101509.94;;;8.27;77.57
84316;BME280;74496;52.236;5.164;2023-12-20T00:30:51;101502.56;;;8.32;77.40
84316;BME280;74496;52.236;5.164;2023-12-20T00:33:19;101506.06;;;8.33;77.90
84316;BME280;74496;52.236;5.164;2023-12-20T00:35:45;101502.56;;;8.32;78.06
84316;BME280;74496;52.236;5.164;2023-12-20T00:38:12;101505.09;;;8.34;76.99
84316;BME280;74496;52.236;5.164;2023-12-20T00:40:39;101505.09;;;8.34;77.83
84316;BME280;74496;52.236;5.164;2023-12-20T00:43:05;101497.22;;;8.34;77.62
84316;BME280;74496;52.236;5.164;2023-12-20T00:45:32;101499.00;;;8.33;78.07
84316;BME280;74496;52.236;5.164;2023-12-20T00:47:59;101499.22;;;8.30;77.61
84316;BME280;74496;52.236;5.164;2023-12-20T00:50:27;101508.47;;;8.36;77.91
84316;BME280;74496;52.236;5.164;2023-12-20T00:52:53;101500.59;;;8.36;77.43
84316;BME280;74496;52.236;5.164;2023-12-20T00:55:21;101485.03;;;8.33;77.90
84316;BME280;74496;52.236;5.164;2023-12-20T00:57:48;101478.91;;;8.32;77.40
84316;BME280;74496;52.236;5.164;2023-12-20T01:00:15;101477.97;;;8.33;77.81
84316;BME280;74496;52.236;5.164;2023-12-20T01:02:42;101480.59;;;8.33;78.01
84316;BME280;74496;52.236;5.164;2023-12-20T01:05:08;101482.72;;;8.41;77.31
84316;BME280;74496;52.236;5.164;2023-12-20T01:07:36;101483.03;;;8.36;77.59
84316;BME280;74496;52.236;5.164;2023-12-20T01:10:03;101485.66;;;8.36;77.58
84316;BME280;74496;52.236;5.164;2023-12-20T01:12:30;101500.69;;;8.34;77.09
84316;BME280;74496;52.236;5.164;2023-12-20T01:14:57;101506.28;;;8.30;77.62
84316;BME280;74496;52.236;5.164;2023-12-20T01:17:24;101501.00;;;8.30;78.11
84316;BME280;74496;52.236;5.164;2023-12-20T01:19:51;101494.06;;;8.29;78.33
84316;BME280;74496;52.236;5.164;2023-12-20T01:22:17;101500.81;;;8.33;78.21
84316;BME280;74496;52.236;5.164;2023-12-20T01:24:45;101500.81;;;8.33;77.74
84316;BME280;74496;52.236;5.164;2023-12-20T01:27:12;101501.44;;;8.36;77.98
84316;BME280;74496;52.236;5.164;2023-12-20T01:29:39;101491.75;;;8.37;77.78
84316;BME280;74496;52.236;5.164;2023-12-20T01:32:06;101484.38;;;8.42;77.46
84316;BME280;74496;52.236;5.164;2023-12-20T01:34:32;101486.50;;;8.37;77.68
84316;BME280;74496;52.236;5.164;2023-12-20T01:36:59;101487.16;;;8.40;77.97
84316;BME280;74496;52.236;5.164;2023-12-20T01:39:26;101481.97;;;8.39;77.62
84316;BME280;74496;52.236;5.164;2023-12-20T01:41:54;101488.38;;;8.35;78.30
84316;BME280;74496;52.236;5.164;2023-12-20T01:44:21;101481.44;;;8.34;77.80
84316;BME280;74496;52.236;5.164;2023-12-20T01:46:48;101478.59;;;8.37;77.78
84316;BME280;74496;52.236;5.164;2023-12-20T01:49:15;101473.25;;;8.38;78.09
84316;BME280;74496;52.236;5.164;2023-12-20T01:51:42;101481.31;;;8.35;78.65
84316;BME280;74496;52.236;5.164;2023-12-20T01:54:09;101481.88;;;8.40;78.96
84316;BME280;74496;52.236;5.164;2023-12-20T01:56:37;101479.75;;;8.45;77.76
84316;BME280;74496;52.236;5.164;2023-12-20T01:59:07;101478.50;;;8.51;77.78
84316;BME280;74496;52.236;5.164;2023-12-20T02:01:34;101473.22;;;8.51;77.39
84316;BME280;74496;52.236;5.164;2023-12-20T02:04:01;101483.31;;;8.57;77.69
84316;BME280;74496;52.236;5.164;2023-12-20T02:06:29;101480.69;;;8.57;77.45
84316;BME280;74496;52.236;5.164;2023-12-20T02:08:57;101477.78;;;8.49;77.88
84316;BME280;74496;52.236;5.164;2023-12-20T02:11:23;101481.44;;;8.59;77.40
84316;BME280;74496;52.236;5.164;2023-12-20T02:13:51;101477.00;;;8.60;77.70
84316;BME280;74496;52.236;5.164;2023-12-20T02:16:19;101474.88;;;8.65;77.49
84316;BME280;74496;52.236;5.164;2023-12-20T02:18:46;101470.34;;;8.67;77.96
84316;BME280;74496;52.236;5.164;2023-12-20T02:21:12;101470.03;;;8.72;77.49
84316;BME280;74496;52.236;5.164;2023-12-20T02:23:40;101474.34;;;8.73;77.13
84316;BME280;74496;52.236;5.164;2023-12-20T02:26:07;101466.13;;;8.77;76.57
84316;BME280;74496;52.236;5.164;2023-12-20T02:28:34;101468.75;;;8.77;77.60
84316;BME280;74496;52.236;5.164;2023-12-20T02:31:01;101469.16;;;8.84;77.42
84316;BME280;74496;52.236;5.164;2023-12-20T02:33:28;101468.44;;;8.82;77.25
84316;BME280;74496;52.236;5.164;2023-12-20T02:35:54;101458.06;;;8.91;76.76
84316;BME280;74496;52.236;5.164;2023-12-20T02:38:21;101454.19;;;8.84;75.93
84316;BME280;74496;52.236;5.164;2023-12-20T02:40:49;101464.19;;;8.92;75.80
84316;BME280;74496;52.236;5.164;2023-12-20T02:43:16;101462.38;;;8.92;75.88
84316;BME280;74496;52.236;5.164;2023-12-20T02:45:42;101465.03;;;8.92;75.66
84316;BME280;74496;52.236;5.164;2023-12-20T02:48:09;101457.44;;;8.88;76.46
84316;BME280;74496;52.236;5.164;2023-12-20T02:50:36;101462.09;;;8.84;76.28
84316;BME280;74496;52.236;5.164;2023-12-20T02:53:02;101451.34;;;8.87;76.02
84316;BME280;74496;52.236;5.164;2023-12-20T02:55:29;101442.63;;;8.87;76.02
84316;BME280;74496;52.236;5.164;2023-12-20T02:57:57;101441.25;;;8.81;76.70
84316;BME280;74496;52.236;5.164;2023-12-20T03:00:24;101433.06;;;8.86;75.83
84316;BME280;74496;52.236;5.164;2023-12-20T03:02:51;101437.34;;;8.87;75.69
84316;BME280;74496;52.236;5.164;2023-12-20T03:05:17;101427.06;;;8.84;75.41
84316;BME280;74496;52.236;5.164;2023-12-20T03:07:44;101428.50;;;8.88;75.98
84316;BME280;74496;52.236;5.164;2023-12-20T03:10:11;101435.56;;;8.87;75.35
84316;BME280;74496;52.236;5.164;2023-12-20T03:12:38;101438.94;;;8.89;75.69
84316;BME280;74496;52.236;5.164;2023-12-20T03:15:08;101431.47;;;8.83;76.13
84316;BME280;74496;52.236;5.164;2023-12-20T03:17:35;101420.00;;;8.84;76.24
84316;BME280;74496;52.236;5.164;2023-12-20T03:20:02;101416.53;;;8.84;75.86
84316;BME280;74496;52.236;5.164;2023-12-20T03:22:29;101412.22;;;8.83;74.92
84316;BME280;74496;52.236;5.164;2023-12-20T03:24:55;101420.28;;;8.92;75.29
84316;BME280;74496;52.236;5.164;2023-12-20T03:27:22;101421.22;;;8.91;76.34
84316;BME280;74496;52.236;5.164;2023-12-20T03:29:49;101422.91;;;8.92;74.85
84316;BME280;74496;52.236;5.164;2023-12-20T03:32:17;101415.25;;;8.89;75.64
84316;BME280;74496;52.236;5.164;2023-12-20T03:34:43;101400.81;;;8.95;75.25
84316;BME280;74496;52.236;5.164;2023-12-20T03:37:10;101413.44;;;8.90;75.05
84316;BME280;74496;52.236;5.164;2023-12-20T03:39:36;101417.59;;;8.81;75.55
84316;BME280;74496;52.236;5.164;2023-12-20T03:42:04;101424.53;;;8.82;75.22
84316;BME280;74496;52.236;5.164;2023-12-20T03:44:30;101425.78;;;8.89;74.99
84316;BME280;74496;52.236;5.164;2023-12-20T03:46:57;101432.38;;;8.95;74.73
84316;BME280;74496;52.236;5.164;2023-12-20T03:49:25;101435.06;;;8.82;75.12
84316;BME280;74496;52.236;5.164;2023-12-20T03:51:51;101439.50;;;8.82;75.32
84316;BME280;74496;52.236;5.164;2023-12-20T03:54:18;101444.31;;;9.12;73.92
84316;BME280;74496;52.236;5.164;2023-12-20T03:56:45;101446.47;;;8.94;74.41
84316;BME280;74496;52.236;5.164;2023-12-20T03:59:11;101443.00;;;8.93;74.95
84316;BME280;74496;52.236;5.164;2023-12-20T04:01:38;101439.19;;;8.98;75.56
84316;BME280;74496;52.236;5.164;2023-12-20T04:04:05;101426.66;;;9.01;74.56
84316;BME280;74496;52.236;5.164;2023-12-20T04:06:32;101423.53;;;8.96;74.83
84316;BME280;74496;52.236;5.164;2023-12-20T04:08:58;101422.13;;;9.03;75.15
84316;BME280;74496;52.236;5.164;2023-12-20T04:11:25;101408.84;;;9.05;74.76
84316;BME280;74496;52.236;5.164;2023-12-20T04:13:51;101430.53;;;9.08;73.93
84316;BME280;74496;52.236;5.164;2023-12-20T04:16:18;101424.31;;;9.09;73.78
84316;BME280;74496;52.236;5.164;2023-12-20T04:18:45;101431.00;;;9.13;74.75
84316;BME280;74496;52.236;5.164;2023-12-20T04:21:11;101414.63;;;9.10;73.73
84316;BME280;74496;52.236;5.164;2023-12-20T04:23:39;101409.19;;;9.00;74.56
84316;BME280;74496;52.236;5.164;2023-12-20T04:26:06;101410.56;;;9.17;74.12
84316;BME280;74496;52.236;5.164;2023-12-20T04:28:33;101409.25;;;9.11;73.60
84316;BME280;74496;52.236;5.164;2023-12-20T04:30:59;101408.13;;;9.03;73.79
84316;BME280;74496;52.236;5.164;2023-12-20T04:33:26;101412.94;;;9.09;74.98
84316;BME280;74496;52.236;5.164;2023-12-20T04:35:53;101416.19;;;9.12;74.47
84316;BME280;74496;52.236;5.164;2023-12-20T04:38:19;101410.84;;;9.01;74.20
84316;BME280;74496;52.236;5.164;2023-12-20T04:40:47;101412.50;;;9.15;75.01
84316;BME280;74496;52.236;5.164;2023-12-20T04:43:14;101411.06;;;9.22;73.09
84316;BME280;74496;52.236;5.164;2023-12-20T04:45:41;101406.13;;;9.18;73.82
84316;BME280;74496;52.236;5.164;2023-12-20T04:48:07;101403.78;;;9.26;73.73
84316;BME280;74496;52.236;5.164;2023-12-20T04:50:34;101404.97;;;9.22;74.48
84316;BME280;74496;52.236;5.164;2023-12-20T04:53:01;101390.63;;;9.26;73.86
84316;BME280;74496;52.236;5.164;2023-12-20T04:55:27;101405.44;;;9.15;73.63
84316;BME280;74496;52.236;5.164;2023-12-20T04:57:55;101400.78;;;9.19;74.13
84316;BME280;74496;52.236;5.164;2023-12-20T05:00:22;101387.03;;;9.27;73.17
84316;BME280;74496;52.236;5.164;2023-12-20T05:02:49;101396.34;;;9.20;73.84
84316;BME280;74496;52.236;5.164;2023-12-20T05:05:16;101388.44;;;9.20;73.47
84316;BME280;74496;52.236;5.164;2023-12-20T05:07:43;101393.56;;;9.10;73.65
84316;BME280;74496;52.236;5.164;2023-12-20T05:10:10;101395.66;;;9.29;72.84
84316;BME280;74496;52.236;5.164;2023-12-20T05:12:36;101399.88;;;9.31;73.15
84316;BME280;74496;52.236;5.164;2023-12-20T05:15:06;101405.50;;;9.38;72.87
84316;BME280;74496;52.236;5.164;2023-12-20T05:17:33;101393.13;;;9.27;72.77
84316;BME280;74496;52.236;5.164;2023-12-20T05:20:00;101398.91;;;9.32;73.18
84316;BME280;74496;52.236;5.164;2023-12-20T05:22:26;101406.94;;;9.42;72.43
84316;BME280;74496;52.236;5.164;2023-12-20T05:24:53;101406.78;;;9.32;72.78
84316;BME280;74496;52.236;5.164;2023-12-20T05:27:20;101403.56;;;9.29;73.13
84316;BME280;74496;52.236;5.164;2023-12-20T05:29:47;101401.63;;;9.31;73.60
84316;BME280;74496;52.236;5.164;2023-12-20T05:32:16;101384.63;;;9.24;72.97
84316;BME280;74496;52.236;5.164;2023-12-20T05:34:43;101386.69;;;9.31;73.01
84316;BME280;74496;52.236;5.164;2023-12-20T05:37:09;101389.06;;;9.23;73.01
84316;BME280;74496;52.236;5.164;2023-12-20T05:39:36;101383.56;;;9.37;73.67
84316;BME280;74496;52.236;5.164;2023-12-20T05:42:03;101379.50;;;9.33;73.93
84316;BME280;74496;52.236;5.164;2023-12-20T05:44:30;101384.16;;;9.30;73.17
84316;BME280;74496;52.236;5.164;2023-12-20T05:46:57;101382.88;;;9.35;73.54
84316;BME280;74496;52.236;5.164;2023-12-20T05:49:25;101388.50;;;9.42;72.74
84316;BME280;74496;52.236;5.164;2023-12-20T05:51:51;101392.81;;;9.43;72.89
84316;BME280;74496;52.236;5.164;2023-12-20T05:54:19;101388.06;;;9.48;73.30
84316;BME280;74496;52.236;5.164;2023-12-20T05:56:46;101390.63;;;9.37;73.16
84316;BME280;74496;52.236;5.164;2023-12-20T05:59:13;101382.50;;;9.40;73.61
84316;BME280;74496;52.236;5.164;2023-12-20T06:01:40;101390.88;;;9.34;74.05
84316;BME280;74496;52.236;5.164;2023-12-20T06:04:06;101392.81;;;9.43;73.46
84316;BME280;74496;52.236;5.164;2023-12-20T06:06:40;101394.25;;;9.47;73.00
84316;BME280;74496;52.236;5.164;2023-12-20T06:09:07;101386.63;;;9.55;72.68
84316;BME280;74496;52.236;5.164;2023-12-20T06:11:33;101394.75;;;9.41;73.20
84316;BME280;74496;52.236;5.164;2023-12-20T06:14:00;101383.13;;;9.44;72.59
84316;BME280;74496;52.236;5.164;2023-12-20T06:16:27;101387.44;;;9.45;72.74
84316;BME280;74496;52.236;5.164;2023-12-20T06:18:53;101382.19;;;9.45;73.12
84316;BME280;74496;52.236;5.164;2023-12-20T06:21:20;101379.88;;;9.40;73.74
84316;BME280;74496;52.236;5.164;2023-12-20T06:23:48;101382.63;;;9.38;74.24
84316;BME280;74496;52.236;5.164;2023-12-20T06:26:14;101371.78;;;9.54;72.90
84316;BME280;74496;52.236;5.164;2023-12-20T06:28:41;101383.38;;;9.52;73.13
84316;BME280;74496;52.236;5.164;2023-12-20T06:31:08;101384.81;;;9.56;72.55
84316;BME280;74496;52.236;5.164;2023-12-20T06:33:34;101376.06;;;9.44;72.70
84316;BME280;74496;52.236;5.164;2023-12-20T06:36:01;101382.19;;;9.45;72.83
84316;BME280;74496;52.236;5.164;2023-12-20T06:38:28;101383.84;;;9.46;73.58
84316;BME280;74496;52.236;5.164;2023-12-20T06:40:56;101386.94;;;9.51;73.16
84316;BME280;74496;52.236;5.164;2023-12-20T06:43:24;101378.81;;;9.54;73.16
84316;BME280;74496;52.236;5.164;2023-12-20T06:45:50;101377.84;;;9.44;73.26
84316;BME280;74496;52.236;5.164;2023-12-20T06:48:17;101372.13;;;9.50;72.75
84316;BME280;74496;52.236;5.164;2023-12-20T06:50:44;101373.19;;;9.47;72.82
84316;BME280;74496;52.236;5.164;2023-12-20T06:53:10;101368.88;;;9.57;73.28
84316;BME280;74496;52.236;5.164;2023-12-20T06:55:37;101377.41;;;9.61;72.66
84316;BME280;74496;52.236;5.164;2023-12-20T06:58:05;101375.13;;;9.56;73.41
84316;BME280;74496;52.236;5.164;2023-12-20T07:00:32;101369.03;;;9.56;73.06
84316;BME280;74496;52.236;5.164;2023-12-20T07:02:59;101382.69;;;9.61;72.91
84316;BME280;74496;52.236;5.164;2023-12-20T07:05:26;101375.72;;;9.60;73.26
84316;BME280;74496;52.236;5.164;2023-12-20T07:07:53;101375.63;;;9.61;72.86
84316;BME280;74496;52.236;5.164;2023-12-20T07:10:20;101372.47;;;9.56;73.43
84316;BME280;74496;52.236;5.164;2023-12-20T07:12:46;101373.09;;;9.60;73.06
84316;BME280;74496;52.236;5.164;2023-12-20T07:15:15;101369.25;;;9.53;73.12
84316;BME280;74496;52.236;5.164;2023-12-20T07:17:42;101352.97;;;9.59;72.80
84316;BME280;74496;52.236;5.164;2023-12-20T07:20:09;101353.81;;;9.59;72.87
84316;BME280;74496;52.236;5.164;2023-12-20T07:22:36;101354.41;;;9.63;72.90
84316;BME280;74496;52.236;5.164;2023-12-20T07:25:03;101342.22;;;9.62;73.15
84316;BME280;74496;52.236;5.164;2023-12-20T07:27:30;101343.66;;;9.55;72.73
84316;BME280;74496;52.236;5.164;2023-12-20T07:29:57;101331.78;;;9.60;72.59
84316;BME280;74496;52.236;5.164;2023-12-20T07:32:25;101345.91;;;9.59;73.08
84316;BME280;74496;52.236;5.164;2023-12-20T07:34:52;101344.25;;;9.70;72.93
84316;BME280;74496;52.236;5.164;2023-12-20T07:37:20;101344.84;;;9.62;72.73
84316;BME280;74496;52.236;5.164;2023-12-20T07:39:46;101347.94;;;9.67;72.99
84316;BME280;74496;52.236;5.164;2023-12-20T07:42:13;101359.31;;;9.56;73.19
84316;BME280;74496;52.236;5.164;2023-12-20T07:44:40;101360.97;;;9.57;73.91
84316;BME280;74496;52.236;5.164;2023-12-20T07:47:06;101365.19;;;9.60;73.61
84316;BME280;74496;52.236;5.164;2023-12-20T07:49:34;101373.22;;;9.58;74.15
84316;BME280;74496;52.236;5.164;2023-12-20T07:52:01;101373.09;;;9.82;72.30
84316;BME280;74496;52.236;5.164;2023-12-20T07:54:28;101369.97;;;9.66;73.32
84316;BME280;74496;52.236;5.164;2023-12-20T07:56:55;101371.66;;;9.67;72.96
84316;BME280;74496;52.236;5.164;2023-12-20T07:59:22;101374.31;;;9.78;73.13
84316;BME280;74496;52.236;5.164;2023-12-20T08:01:48;101375.03;;;9.69;73.65
84316;BME280;74496;52.236;5.164;2023-12-20T08:04:15;101390.59;;;9.72;72.90
84316;BME280;74496;52.236;5.164;2023-12-20T08:06:43;101392.50;;;9.70;72.43
84316;BME280;74496;52.236;5.164;2023-12-20T08:09:09;101387.25;;;9.81;72.29
84316;BME280;74496;52.236;5.164;2023-12-20T08:11:36;101388.69;;;9.74;73.68
84316;BME280;74496;52.236;5.164;2023-12-20T08:14:03;101381.25;;;9.79;72.77
84316;BME280;74496;52.236;5.164;2023-12-20T08:16:30;101384.00;;;9.78;73.08
84316;BME280;74496;52.236;5.164;2023-12-20T08:18:56;101373.34;;;9.91;72.12
84316;BME280;74496;52.236;5.164;2023-12-20T08:21:23;101381.13;;;9.92;71.90
84316;BME280;74496;52.236;5.164;2023-12-20T08:23:51;101381.59;;;9.86;72.69
84316;BME280;74496;52.236;5.164;2023-12-20T08:26:19;101378.97;;;9.86;72.98
84316;BME280;74496;52.236;5.164;2023-12-20T08:28:47;101376.00;;;9.91;72.79
84316;BME280;74496;52.236;5.164;2023-12-20T08:31:14;101371.66;;;9.90;72.61
84316;BME280;74496;52.236;5.164;2023-12-20T08:36:09;101365.44;;;9.91;72.89
84316;BME280;74496;52.236;5.164;2023-12-20T08:38:35;101367.72;;;9.95;72.33
84316;BME280;74496;52.236;5.164;2023-12-20T08:41:04;101374.31;;;10.01;72.92
84316;BME280;74496;52.236;5.164;2023-12-20T08:43:31;101369.03;;;10.01;71.96
84316;BME280;74496;52.236;5.164;2023-12-20T08:45:58;101369.88;;;10.01;72.86
84316;BME280;74496;52.236;5.164;2023-12-20T08:48:24;101371.44;;;10.04;73.06
84316;BME280;74496;52.236;5.164;2023-12-20T08:50:51;101371.19;;;10.07;72.75
84316;BME280;74496;52.236;5.164;2023-12-20T08:53:18;101377.31;;;10.07;72.47
84316;BME280;74496;52.236;5.164;2023-12-20T08:55:45;101379.22;;;10.05;72.77
84316;BME280;74496;52.236;5.164;2023-12-20T08:58:13;101366.03;;;10.05;72.65
84316;BME280;74496;52.236;5.164;2023-12-20T09:00:40;101376.34;;;10.08;72.40
84316;BME280;74496;52.236;5.164;2023-12-20T09:03:07;101375.59;;;10.06;73.15
84316;BME280;74496;52.236;5.164;2023-12-20T09:05:33;101379.19;;;10.17;72.57
84316;BME280;74496;52.236;5.164;2023-12-20T09:08:00;101371.56;;;10.14;72.30
84316;BME280;74496;52.236;5.164;2023-12-20T09:10:27;101368.44;;;10.31;71.93
84316;BME280;74496;52.236;5.164;2023-12-20T09:12:54;101375.97;;;10.13;72.46
84316;BME280;74496;52.236;5.164;2023-12-20T09:15:23;101366.16;;;10.15;72.28
84316;BME280;74496;52.236;5.164;2023-12-20T09:17:49;101372.72;;;10.09;72.90
84316;BME280;74496;52.236;5.164;2023-12-20T09:20:16;101357.63;;;10.12;72.16
84316;BME280;74496;52.236;5.164;2023-12-20T09:22:43;101362.44;;;10.18;72.85
84316;BME280;74496;52.236;5.164;2023-12-20T09:25:10;101369.25;;;10.20;73.04
84316;BME280;74496;52.236;5.164;2023-12-20T09:27:38;101370.47;;;10.27;72.41
84316;BME280;74496;52.236;5.164;2023-12-20T09:30:05;101361.13;;;10.23;72.39
84316;BME280;74496;52.236;5.164;2023-12-20T09:32:33;101369.75;;;10.14;72.27
84316;BME280;74496;52.236;5.164;2023-12-20T09:35:00;101374.53;;;10.31;71.69
84316;BME280;74496;52.236;5.164;2023-12-20T09:37:27;101372.97;;;10.40;72.18
84316;BME280;74496;52.236;5.164;2023-12-20T09:39:54;101375.84;;;10.37;72.21
84316;BME280;74496;52.236;5.164;2023-12-20T09:42:24;101366.97;;;10.38;72.57
84316;BME280;74496;52.236;5.164;2023-12-20T09:44:57;101364.94;;;10.42;71.73
84316;BME280;74496;52.236;5.164;2023-12-20T09:47:25;101369.72;;;10.48;71.67
84316;BME280;74496;52.236;5.164;2023-12-20T09:49:54;101369.81;;;10.57;71.47
84316;BME280;74496;52.236;5.164;2023-12-20T09:52:22;101373.06;;;10.50;71.58
84316;BME280;74496;52.236;5.164;2023-12-20T09:54:49;101373.06;;;10.50;71.63
84316;BME280;74496;52.236;5.164;2023-12-20T09:57:19;101390.56;;;10.51;71.62
84316;BME280;74496;52.236;5.164;2023-12-20T09:59:45;101381.72;;;10.41;72.34
84316;BME280;74496;52.236;5.164;2023-12-20T10:02:13;101372.53;;;10.67;71.33
84316;BME280;74496;52.236;5.164;2023-12-20T10:04:42;101383.81;;;10.58;70.77
84316;BME280;74496;52.236;5.164;2023-12-20T10:07:12;101381.66;;;10.63;71.19
84316;BME280;74496;52.236;5.164;2023-12-20T10:09:39;101382.66;;;10.51;71.52
84316;BME280;74496;52.236;5.164;2023-12-20T10:12:06;101382.50;;;10.52;71.75
84316;BME280;74496;52.236;5.164;2023-12-20T10:14:33;101385.41;;;10.49;72.07
84316;BME280;74496;52.236;5.164;2023-12-20T10:17:02;101394.75;;;10.53;71.96
84316;BME280;74496;52.236;5.164;2023-12-20T10:19:29;101389.50;;;10.53;71.48
84316;BME280;74496;52.236;5.164;2023-12-20T10:21:55;101385.75;;;10.56;71.63
84316;BME280;74496;52.236;5.164;2023-12-20T10:24:23;101380.09;;;10.61;71.64
84316;BME280;74496;52.236;5.164;2023-12-20T10:27:01;101380.69;;;10.64;71.23
84316;BME280;74496;52.236;5.164;2023-12-20T10:29:31;101370.81;;;10.77;70.53
84316;BME280;74496;52.236;5.164;2023-12-20T10:31:58;101379.81;;;11.07;69.89
84316;BME280;74496;52.236;5.164;2023-12-20T10:34:25;101370.69;;;10.79;70.78
84316;BME280;74496;52.236;5.164;2023-12-20T10:36:52;101375.94;;;10.79;70.83
84316;BME280;74496;52.236;5.164;2023-12-20T10:39:19;101366.34;;;10.89;70.67
84316;BME280;74496;52.236;5.164;2023-12-20T10:41:49;101367.63;;;10.95;70.81
84316;BME280;74496;52.236;5.164;2023-12-20T10:44:16;101362.47;;;10.93;71.06
84316;BME280;74496;52.236;5.164;2023-12-20T10:46:43;101366.78;;;10.94;70.03
84316;BME280;74496;52.236;5.164;2023-12-20T10:49:17;101364.16;;;10.94;69.64
84316;BME280;74496;52.236;5.164;2023-12-20T10:51:46;101353.41;;;11.07;70.77
84316;BME280;74496;52.236;5.164;2023-12-20T10:54:14;101348.13;;;11.28;70.24
84316;BME280;74496;52.236;5.164;2023-12-20T10:56:41;101359.25;;;11.32;69.26
84316;BME280;74496;52.236;5.164;2023-12-20T10:59:10;101355.38;;;11.57;68.77
84316;BME280;74496;52.236;5.164;2023-12-20T11:01:38;101343.03;;;11.67;68.14
84316;BME280;74496;52.236;5.164;2023-12-20T11:04:10;101349.22;;;11.77;66.96
84316;BME280;74496;52.236;5.164;2023-12-20T11:06:45;101349.16;;;11.88;66.93
84316;BME280;74496;52.236;5.164;2023-12-20T11:09:19;101341.66;;;11.93;66.15
84316;BME280;74496;52.236;5.164;2023-12-20T11:11:56;101341.88;;;12.11;66.50
84316;BME280;74496;52.236;5.164;2023-12-20T11:14:31;101346.03;;;12.24;65.77
84316;BME280;74496;52.236;5.164;2023-12-20T11:17:09;101340.63;;;12.25;65.43
84316;BME280;74496;52.236;5.164;2023-12-20T11:20:03;101334.66;;;12.33;64.87
84316;BME280;74496;52.236;5.164;2023-12-20T11:22:31;101336.03;;;12.37;64.22
84316;BME280;74496;52.236;5.164;2023-12-20T11:25:04;101332.28;;;12.39;64.34
84316;BME280;74496;52.236;5.164;2023-12-20T11:27:32;101328.22;;;12.16;64.44
84316;BME280;74496;52.236;5.164;2023-12-20T11:30:03;101337.84;;;12.36;64.07
84316;BME280;74496;52.236;5.164;2023-12-20T11:32:32;101331.16;;;12.23;64.45
84316;BME280;74496;52.236;5.164;2023-12-20T11:35:01;101330.59;;;12.19;64.72
84316;BME280;74496;52.236;5.164;2023-12-20T11:37:42;101331.38;;;12.00;65.63
84316;BME280;74496;52.236;5.164;2023-12-20T11:40:11;101323.97;;;11.94;65.49
84316;BME280;74496;52.236;5.164;2023-12-20T11:42:40;101317.28;;;11.90;65.40
84316;BME280;74496;52.236;5.164;2023-12-20T11:45:10;101324.00;;;12.04;65.22
84316;BME280;74496;52.236;5.164;2023-12-20T11:47:37;101312.44;;;11.95;66.27
84316;BME280;74496;52.236;5.164;2023-12-20T11:50:05;101305.81;;;11.80;66.18
84316;BME280;74496;52.236;5.164;2023-12-20T11:52:32;101306.91;;;11.77;66.04
84316;BME280;74496;52.236;5.164;2023-12-20T11:54:58;101297.75;;;11.71;67.16
84316;BME280;74496;52.236;5.164;2023-12-20T11:57:25;101309.25;;;11.70;66.92
84316;BME280;74496;52.236;5.164;2023-12-20T11:59:52;101291.91;;;11.78;67.06
84316;BME280;74496;52.236;5.164;2023-12-20T12:02:20;101305.38;;;11.65;68.01
84316;BME280;74496;52.236;5.164;2023-12-20T12:04:48;101291.31;;;11.74;67.50
84316;BME280;74496;52.236;5.164;2023-12-20T12:07:16;101310.09;;;11.71;67.58
84316;BME280;74496;52.236;5.164;2023-12-20T12:09:43;101310.34;;;11.68;68.13
84316;BME280;74496;52.236;5.164;2023-12-20T12:12:10;101305.09;;;11.78;67.72
84316;BME280;74496;52.236;5.164;2023-12-20T12:14:37;101314.84;;;11.77;67.64
84316;BME280;74496;52.236;5.164;2023-12-20T12:17:10;101306.38;;;11.83;67.56
84316;BME280;74496;52.236;5.164;2023-12-20T12:19:38;101307.91;;;11.76;67.44
84316;BME280;74496;52.236;5.164;2023-12-20T12:22:05;101304.56;;;11.84;67.92
84316;BME280;74496;52.236;5.164;2023-12-20T12:24:33;101295.59;;;11.86;67.45
84316;BME280;74496;52.236;5.164;2023-12-20T12:27:00;101290.03;;;11.89;67.70
84316;BME280;74496;52.236;5.164;2023-12-20T12:29:27;101276.09;;;11.87;67.27
84316;BME280;74496;52.236;5.164;2023-12-20T12:31:54;101271.84;;;12.06;66.87
84316;BME280;74496;52.236;5.164;2023-12-20T12:34:21;101266.09;;;11.91;66.98
84316;BME280;74496;52.236;5.164;2023-12-20T12:36:49;101270.44;;;11.92;67.71
84316;BME280;74496;52.236;5.164;2023-12-20T12:39:17;101275.66;;;11.82;68.14
84316;BME280;74496;52.236;5.164;2023-12-20T12:41:44;101260.13;;;11.89;68.08
84316;BME280;74496;52.236;5.164;2023-12-20T12:44:11;101257.19;;;11.92;67.55
84316;BME280;74496;52.236;5.164;2023-12-20T12:46:38;101263.03;;;11.86;67.66
84316;BME280;74496;52.236;5.164;2023-12-20T12:49:04;101266.31;;;11.78;68.24
84316;BME280;74496;52.236;5.164;2023-12-20T12:51:31;101265.69;;;11.86;67.77
84316;BME280;74496;52.236;5.164;2023-12-20T12:53:59;101268.44;;;11.84;67.06
84316;BME280;74496;52.236;5.164;2023-12-20T12:56:26;101262.41;;;11.72;67.83
84316;BME280;74496;52.236;5.164;2023-12-20T12:58:53;101258.50;;;11.77;67.44
84316;BME280;74496;52.236;5.164;2023-12-20T13:01:20;101257.50;;;11.68;67.92